Time;durP1;ratioP1;P1;durP2;ratioP2;P2;SDS_P1;SDS_P2;PMS_P1;PMS_P2;Temp;Humidity;BMP_temperature;BMP_pressure;BME280_temperature;BME280_humidity;BME280_pressure;Samples;Min_cycle;Max_cycle;Signal;HPM_P1;HPM_P2
2022/05/20 00:01:37;;;;;;;9.00;4.85;;;12.90;99.90;;;;;;4939311;29;20040;-79
2022/05/20 00:04:03;;;;;;;6.82;4.80;;;12.80;99.90;;;;;;4885352;29;20055;-80
2022/05/20 00:06:29;;;;;;;8.65;5.22;;;12.80;99.90;;;;;;4925632;29;20048;-80
2022/05/20 00:08:55;;;;;;;7.68;5.20;;;12.80;99.90;;;;;;4948095;29;20055;-80
2022/05/20 00:11:20;;;;;;;7.57;5.47;;;12.80;99.90;;;;;;4899418;29;20044;-80
2022/05/20 00:13:47;;;;;;;10.30;5.38;;;12.80;99.90;;;;;;4927019;29;20055;-80
2022/05/20 00:16:13;;;;;;;10.70;5.15;;;12.80;99.90;;;;;;4947236;29;20135;-79
2022/05/20 00:18:39;;;;;;;7.47;5.13;;;12.80;99.90;;;;;;4931008;29;20044;-80
2022/05/20 00:21:05;;;;;;;12.18;5.60;;;12.80;99.90;;;;;;4915302;29;20102;-80
2022/05/20 00:23:32;;;;;;;8.85;5.38;;;12.80;99.90;;;;;;4945856;29;20066;-80
2022/05/20 00:25:58;;;;;;;9.45;4.32;;;12.90;99.90;;;;;;4946966;28;20062;-80
2022/05/20 00:28:28;;;;;;;9.32;4.80;;;12.90;99.90;;;;;;4932162;29;20405;-80
2022/05/20 00:30:56;;;;;;;10.68;4.78;;;12.80;99.90;;;;;;4931365;29;20097;-79
2022/05/20 00:33:24;;;;;;;10.23;4.82;;;12.80;99.90;;;;;;4930698;29;20058;-80
2022/05/20 00:35:50;;;;;;;8.90;4.75;;;12.80;99.90;;;;;;4925403;29;20064;-80
2022/05/20 00:38:16;;;;;;;7.88;4.70;;;12.80;99.90;;;;;;4909349;29;20052;-79
2022/05/20 00:40:43;;;;;;;8.57;4.70;;;12.80;99.90;;;;;;4930859;29;20054;-80
2022/05/20 00:43:21;;;;;;;10.15;4.70;;;13.40;99.90;;;;;;4925917;29;20094;-79
2022/05/20 00:45:47;;;;;;;7.53;4.43;;;12.80;99.90;;;;;;4923926;29;20767;-80
2022/05/20 00:48:13;;;;;;;8.65;4.95;;;12.80;99.90;;;;;;4931697;29;20052;-80
2022/05/20 00:50:43;;;;;;;8.23;4.57;;;12.70;99.90;;;;;;4947248;28;20122;-80
2022/05/20 00:53:11;;;;;;;8.25;5.15;;;12.70;99.90;;;;;;4925261;29;20051;-80
2022/05/20 00:55:37;;;;;;;8.50;4.57;;;12.70;99.90;;;;;;4914178;29;20663;-80
2022/05/20 00:58:09;;;;;;;10.48;5.10;;;12.70;99.90;;;;;;4915792;29;20055;-80
2022/05/20 01:00:43;;;;;;;11.30;4.95;;;12.70;99.90;;;;;;4926227;29;20052;-80
2022/05/20 01:03:12;;;;;;;10.18;4.85;;;12.70;99.90;;;;;;4916081;29;20737;-79
2022/05/20 01:05:41;;;;;;;9.38;5.28;;;12.70;99.90;;;;;;4923927;29;20051;-80
2022/05/20 01:08:08;;;;;;;9.57;4.70;;;12.70;99.90;;;;;;4923733;29;20047;-80
2022/05/20 01:10:35;;;;;;;10.63;5.38;;;12.70;99.90;;;;;;4909391;29;20062;-79
2022/05/20 01:13:01;;;;;;;9.35;4.88;;;12.70;99.90;;;;;;4931839;29;20051;-80
2022/05/20 01:15:28;;;;;;;9.75;4.95;;;12.70;99.90;;;;;;4944862;28;20909;-80
2022/05/20 01:17:54;;;;;;;9.00;4.28;;;12.70;99.90;;;;;;4930808;29;20047;-80
2022/05/20 01:20:33;;;;;;;11.23;4.47;;;12.70;99.90;;;;;;4939311;29;20138;-80
2022/05/20 01:23:07;;;;;;;9.90;4.70;;;12.70;99.90;;;;;;4914700;29;20056;-80
2022/05/20 01:25:33;;;;;;;8.30;4.32;;;12.70;99.90;;;;;;4929189;29;21000;-81
2022/05/20 01:27:59;;;;;;;9.60;4.00;;;12.70;99.90;;;;;;4930435;29;20039;-81
2022/05/20 01:30:27;;;;;;;9.32;4.22;;;12.70;99.90;;;;;;4947581;28;20101;-81
2022/05/20 01:32:54;;;;;;;11.73;3.80;;;12.70;99.90;;;;;;4914456;29;20056;-81
2022/05/20 01:35:44;;;;;;;5.90;2.78;;;12.70;99.90;;;;;;4945927;29;20095;-79
2022/05/20 01:38:11;;;;;;;8.38;3.05;;;12.60;99.90;;;;;;4929445;29;20048;-81
2022/05/20 01:41:21;;;;;;;6.63;2.70;;;12.60;99.90;;;;;;4931662;29;20568;-80
2022/05/20 01:44:16;;;;;;;9.38;3.38;;;12.60;99.90;;;;;;4950643;28;20046;-80
2022/05/20 01:46:51;;;;;;;9.93;3.58;;;12.60;99.90;;;;;;4928742;28;20098;-81
2022/05/20 01:49:22;;;;;;;9.00;3.45;;;12.60;99.90;;;;;;4935176;29;20095;-81
2022/05/20 01:52:25;;;;;;;6.75;3.35;;;12.60;99.90;;;;;;4929325;29;20471;-81
2022/05/20 01:55:05;;;;;;;6.78;3.10;;;12.50;99.90;;;;;;4923090;29;20040;-81
2022/05/20 01:57:52;;;;;;;12.20;3.40;;;12.50;99.90;;;;;;4944693;28;20043;-80
2022/05/20 02:00:22;;;;;;;6.68;3.20;;;12.50;99.90;;;;;;4930489;29;20055;-81
2022/05/20 02:03:09;;;;;;;7.30;3.30;;;12.50;99.90;;;;;;4946408;28;20119;-80
2022/05/20 02:05:54;;;;;;;7.32;2.75;;;12.50;99.90;;;;;;4930088;29;20059;-80
2022/05/20 02:08:37;;;;;;;7.00;2.97;;;12.50;99.90;;;;;;4923053;29;20170;-80
2022/05/20 02:11:05;;;;;;;8.00;3.38;;;12.50;99.90;;;;;;4930438;29;20062;-81
2022/05/20 02:13:36;;;;;;;7.28;2.90;;;12.50;99.90;;;;;;4927823;29;20043;-80
2022/05/20 02:16:18;;;;;;;6.85;3.10;;;12.50;99.90;;;;;;4944884;29;20183;-81
2022/05/20 02:18:49;;;;;;;10.60;4.20;;;12.50;99.90;;;;;;4923475;29;20179;-81
2022/05/20 02:21:18;;;;;;;7.90;3.28;;;12.50;99.90;;;;;;4929157;29;20113;-80
2022/05/20 02:23:50;;;;;;;7.28;2.78;;;12.50;99.90;;;;;;4928452;29;20783;-81
2022/05/20 02:26:22;;;;;;;7.10;2.78;;;12.50;99.90;;;;;;4929217;29;20047;-81
2022/05/20 02:28:59;;;;;;;7.10;2.70;;;12.40;99.90;;;;;;4923739;29;20066;-80
2022/05/20 02:31:35;;;;;;;8.90;3.20;;;12.40;99.90;;;;;;4945869;28;20048;-80
2022/05/20 02:34:01;;;;;;;8.35;2.78;;;12.40;99.90;;;;;;4906757;29;20055;-80
2022/05/20 02:36:32;;;;;;;8.70;2.45;;;12.40;99.90;;;;;;4923062;29;20059;-80
2022/05/20 02:38:58;;;;;;;4.13;2.10;;;12.40;99.90;;;;;;4913346;29;20083;-82
2022/05/20 02:41:25;;;;;;;4.35;2.22;;;12.40;99.90;;;;;;4945862;28;20044;-81
2022/05/20 02:43:51;;;;;;;6.18;2.47;;;12.40;99.90;;;;;;4924612;29;20063;-81
2022/05/20 02:46:17;;;;;;;5.72;2.40;;;12.30;99.90;;;;;;4920920;29;20055;-81
2022/05/20 02:48:42;;;;;;;4.53;2.28;;;12.30;99.90;;;;;;4928743;29;20682;-81
2022/05/20 02:51:08;;;;;;;3.88;2.60;;;12.30;99.90;;;;;;4898655;29;20048;-81
2022/05/20 02:53:34;;;;;;;4.88;2.65;;;12.20;99.90;;;;;;4943097;28;20059;-82
2022/05/20 02:56:00;;;;;;;5.55;2.17;;;12.20;99.90;;;;;;4946501;28;20056;-81
2022/05/20 03:04:09;;;;;;;5.20;2.45;;;12.00;99.90;;;;;;4924517;29;20130;-81
2022/05/20 03:06:36;;;;;;;8.85;3.15;;;12.00;99.90;;;;;;4932119;29;20150;-81
2022/05/20 03:09:03;;;;;;;4.93;2.55;;;12.00;99.90;;;;;;4929425;29;20059;-81
2022/05/20 03:11:29;;;;;;;6.55;3.05;;;11.90;99.90;;;;;;4928711;29;20104;-81
2022/05/20 03:13:54;;;;;;;7.65;2.80;;;11.90;99.90;;;;;;4929102;29;20079;-80
2022/05/20 03:16:20;;;;;;;4.60;2.83;;;11.80;99.90;;;;;;4922926;29;20059;-81
2022/05/20 03:18:46;;;;;;;4.40;2.22;;;11.80;99.90;;;;;;4944735;28;20098;-80
2022/05/20 03:21:11;;;;;;;7.32;3.10;;;11.80;99.90;;;;;;4898385;29;20059;-82
2022/05/20 03:23:37;;;;;;;5.60;2.75;;;11.80;99.90;;;;;;4927162;29;20051;-82
2022/05/20 03:26:04;;;;;;;6.22;2.90;;;11.70;99.90;;;;;;4929698;29;20147;-82
2022/05/20 03:28:32;;;;;;;5.22;2.88;;;11.70;99.90;;;;;;4928127;29;20048;-81
2022/05/20 03:31:09;;;;;;;6.68;2.83;;;11.70;99.90;;;;;;4913864;29;20051;-81
2022/05/20 03:33:36;;;;;;;5.53;2.80;;;11.70;99.90;;;;;;4943355;28;20059;-81
2022/05/20 03:36:02;;;;;;;5.57;2.80;;;12.50;99.90;;;;;;4930648;29;20048;-81
2022/05/20 03:38:28;;;;;;;4.90;2.83;;;11.70;99.90;;;;;;4926918;29;20044;-81
2022/05/20 03:40:53;;;;;;;5.72;2.70;;;11.70;99.90;;;;;;4902222;29;20107;-81
2022/05/20 03:43:19;;;;;;;7.40;3.20;;;11.80;99.90;;;;;;4931580;29;20696;-82
2022/05/20 03:45:45;;;;;;;6.30;3.10;;;11.70;99.90;;;;;;4950139;28;20059;-81
2022/05/20 03:48:10;;;;;;;7.43;2.88;;;11.80;99.90;;;;;;4932454;29;20043;-81
2022/05/20 03:50:36;;;;;;;6.50;3.03;;;11.70;99.90;;;;;;4932506;29;20043;-81
2022/05/20 03:53:03;;;;;;;4.70;2.63;;;11.80;99.90;;;;;;4929941;29;20098;-81
2022/05/20 03:55:29;;;;;;;5.57;2.78;;;11.80;99.90;;;;;;4939706;28;20130;-80
2022/05/20 03:57:55;;;;;;;4.55;2.58;;;11.80;99.90;;;;;;4933197;29;20106;-81
2022/05/20 04:00:21;;;;;;;4.55;2.85;;;11.80;99.90;;;;;;4931892;29;20059;-81
2022/05/20 04:02:47;;;;;;;4.72;3.15;;;11.80;99.90;;;;;;4939728;28;20054;-80
2022/05/20 04:05:13;;;;;;;9.23;3.55;;;11.80;99.90;;;;;;4931710;29;20047;-81
2022/05/20 04:07:39;;;;;;;7.43;3.10;;;11.80;99.90;;;;;;4931865;29;20055;-80
2022/05/20 04:10:09;;;;;;;6.90;3.47;;;11.70;99.90;;;;;;4932033;29;20131;-81
2022/05/20 04:12:43;;;;;;;6.20;3.00;;;11.80;99.90;;;;;;4931141;29;20055;-80
2022/05/20 04:15:14;;;;;;;6.20;2.90;;;11.70;99.90;;;;;;4930474;29;20549;-81
2022/05/20 04:17:40;;;;;;;7.03;3.72;;;11.70;99.90;;;;;;4925002;29;20052;-81
2022/05/20 04:20:07;;;;;;;6.65;3.90;;;11.70;99.90;;;;;;4900042;29;20081;-81
2022/05/20 04:22:38;;;;;;;8.05;4.35;;;11.60;99.90;;;;;;4932018;29;20055;-80
2022/05/20 04:25:05;;;;;;;6.43;3.97;;;11.60;99.90;;;;;;4931696;29;20074;-81
2022/05/20 04:27:31;;;;;;;7.65;4.60;;;11.50;99.90;;;;;;4938947;29;20130;-81
2022/05/20 04:29:57;;;;;;;8.00;4.38;;;10.80;99.90;;;;;;4931186;29;20139;-81
2022/05/20 04:32:23;;;;;;;7.70;4.65;;;11.40;99.90;;;;;;4931787;29;20052;-81
2022/05/20 04:34:49;;;;;;;7.30;3.80;;;11.30;99.90;;;;;;4930952;29;20051;-81
2022/05/20 04:37:15;;;;;;;6.45;4.10;;;11.30;99.90;;;;;;4941164;28;20070;-81
2022/05/20 04:39:41;;;;;;;6.38;4.80;;;11.20;99.90;;;;;;4930370;29;20062;-81
2022/05/20 04:47:43;;;;;;;7.43;4.55;;;11.20;99.90;;;;;;4931107;29;20121;-81
2022/05/20 04:50:09;;;;;;;7.22;4.82;;;11.20;99.90;;;;;;4893694;29;20056;-81
2022/05/20 04:52:35;;;;;;;6.93;5.05;;;11.20;99.90;;;;;;4932274;29;20505;-80
2022/05/20 04:55:01;;;;;;;8.20;5.38;;;10.40;99.90;;;;;;4946298;28;20084;-81
2022/05/20 04:57:36;;;;;;;9.85;5.70;;;11.20;99.90;;;;;;4939154;28;20083;-81
2022/05/20 05:00:09;;;;;;;12.45;7.03;;;11.20;99.90;;;;;;4930921;29;20044;-81
2022/05/20 05:02:35;;;;;;;9.73;6.40;;;11.20;99.90;;;;;;4923931;29;20075;-80
2022/05/20 05:05:02;;;;;;;7.47;5.90;;;11.20;99.90;;;;;;4930475;29;20055;-80
2022/05/20 05:07:28;;;;;;;7.05;5.88;;;11.20;99.90;;;;;;4930897;29;20039;-81
2022/05/20 05:09:53;;;;;;;7.78;6.28;;;11.30;99.90;;;;;;4937200;29;20218;-80
2022/05/20 05:12:19;;;;;;;7.45;5.47;;;11.30;99.90;;;;;;4911391;29;20103;-81
2022/05/20 05:14:48;;;;;;;9.50;6.13;;;11.40;99.90;;;;;;4929419;29;20139;-81
2022/05/20 05:17:17;;;;;;;8.80;6.63;;;11.50;99.90;;;;;;4947097;28;20047;-81
2022/05/20 05:19:46;;;;;;;9.23;6.47;;;11.50;99.90;;;;;;4945644;28;20489;-80
2022/05/20 05:22:12;;;;;;;9.27;7.10;;;11.50;99.90;;;;;;4947705;29;20043;-80
2022/05/20 05:24:38;;;;;;;8.10;6.72;;;11.60;99.90;;;;;;4945123;29;20051;-80
2022/05/20 05:27:07;;;;;;;8.85;7.55;;;11.70;99.90;;;;;;4915518;29;20588;-81
2022/05/20 05:29:35;;;;;;;9.57;7.22;;;11.70;99.90;;;;;;4907365;29;20075;-81
2022/05/20 05:32:01;;;;;;;12.85;7.05;;;11.80;99.90;;;;;;4924346;29;20118;-80
2022/05/20 05:34:26;;;;;;;10.02;7.22;;;11.80;99.90;;;;;;4900771;29;20525;-82
2022/05/20 05:36:52;;;;;;;8.30;6.38;;;12.00;99.90;;;;;;4892934;29;20051;-81
2022/05/20 05:39:18;;;;;;;7.97;7.18;;;12.10;99.90;;;;;;4913995;29;20090;-80
2022/05/20 05:41:45;;;;;;;10.25;7.57;;;12.20;99.90;;;;;;4899100;29;20166;-80
2022/05/20 05:44:11;;;;;;;9.13;6.85;;;12.20;99.90;;;;;;4929786;29;20069;-81
2022/05/20 05:46:37;;;;;;;11.68;7.43;;;12.30;99.90;;;;;;4898985;29;20130;-80
2022/05/20 05:49:03;;;;;;;12.48;6.97;;;12.40;99.90;;;;;;4900990;29;20124;-81
2022/05/20 05:51:28;;;;;;;8.43;7.07;;;12.60;99.90;;;;;;4930892;29;20127;-81
2022/05/20 05:53:56;;;;;;;11.15;6.72;;;12.70;99.90;;;;;;4935862;29;20059;-82
2022/05/20 05:56:22;;;;;;;12.20;7.05;;;12.90;99.90;;;;;;4915743;29;20227;-81
2022/05/20 05:58:47;;;;;;;7.90;6.00;;;13.00;99.90;;;;;;4930026;29;20130;-82
2022/05/20 06:01:15;;;;;;;8.57;5.93;;;13.10;99.90;;;;;;4924504;29;20094;-81
2022/05/20 06:03:42;;;;;;;12.20;6.55;;;13.30;99.90;;;;;;4914214;29;20043;-80
2022/05/20 06:06:07;;;;;;;6.93;5.00;;;13.40;99.90;;;;;;4928197;29;20164;-81
2022/05/20 06:08:33;;;;;;;10.07;5.80;;;13.60;99.90;;;;;;4912957;29;20093;-82
2022/05/20 06:10:59;;;;;;;8.35;5.65;;;13.70;99.90;;;;;;4892508;29;20650;-84
2022/05/20 06:13:28;;;;;;;8.95;4.88;;;13.80;99.90;;;;;;4898288;29;20043;-82
2022/05/20 06:15:57;;;;;;;9.80;5.20;;;13.80;99.90;;;;;;4928489;29;20162;-84
2022/05/20 06:18:24;;;;;;;7.63;4.30;;;13.90;99.90;;;;;;4898380;29;20048;-83
2022/05/20 06:20:50;;;;;;;10.38;4.70;;;13.90;99.90;;;;;;4945007;28;20047;-82
2022/05/20 06:23:16;;;;;;;8.60;4.53;;;14.00;99.90;;;;;;4926557;29;20071;-83
2022/05/20 06:25:42;;;;;;;7.22;4.30;;;14.20;99.90;;;;;;4943633;29;20102;-81
2022/05/20 06:28:16;;;;;;;7.35;4.28;;;14.30;99.90;;;;;;4945035;28;20077;-82
2022/05/20 06:30:43;;;;;;;10.13;4.18;;;14.30;99.90;;;;;;4943856;28;20493;-83
2022/05/20 06:33:10;;;;;;;6.25;3.70;;;14.40;99.90;;;;;;4925664;29;20065;-83
2022/05/20 06:41:06;;;;;;;8.18;4.10;;;14.90;99.90;;;;;;4925479;29;20056;-85
2022/05/20 06:43:32;;;;;;;7.15;4.32;;;15.00;99.90;;;;;;4938238;28;20040;-85
2022/05/20 06:46:01;;;;;;;6.03;4.10;;;15.10;99.90;;;;;;4929081;29;20071;-84
2022/05/20 06:48:37;;;;;;;6.25;4.05;;;15.20;99.90;;;;;;4929923;29;20040;-84
2022/05/20 06:51:04;;;;;;;6.65;4.00;;;15.20;99.90;;;;;;4912487;29;20149;-82
2022/05/20 06:53:30;;;;;;;7.65;3.53;;;15.30;99.90;;;;;;4927904;29;20502;-82
2022/05/20 06:55:57;;;;;;;5.50;4.10;;;15.40;99.90;;;;;;4928728;29;20066;-83
2022/05/20 06:58:23;;;;;;;6.25;3.85;;;15.60;99.90;;;;;;4910565;29;20094;-83
2022/05/20 07:00:48;;;;;;;6.85;3.70;;;15.70;99.90;;;;;;4910943;29;20490;-83
2022/05/20 07:03:14;;;;;;;7.70;3.95;;;15.40;99.90;;;;;;4907552;29;20493;-84
2022/05/20 07:05:40;;;;;;;4.85;3.90;;;16.10;99.90;;;;;;4913825;29;20106;-84
2022/05/20 07:08:06;;;;;;;6.22;4.60;;;16.30;99.90;;;;;;4931725;29;20055;-84
2022/05/20 07:10:32;;;;;;;8.07;4.68;;;16.40;99.90;;;;;;4898073;29;20051;-83
2022/05/20 07:12:57;;;;;;;7.65;4.38;;;16.40;99.90;;;;;;4913036;29;20485;-83
2022/05/20 07:15:23;;;;;;;6.50;4.93;;;16.50;99.90;;;;;;4927869;29;20050;-83
2022/05/20 07:17:49;;;;;;;6.07;4.50;;;16.50;99.90;;;;;;4931967;28;20143;-83
2022/05/20 07:20:15;;;;;;;7.15;4.65;;;16.70;99.90;;;;;;4948010;29;20047;-83
2022/05/20 07:22:41;;;;;;;6.25;4.85;;;17.00;99.90;;;;;;4948523;28;20047;-83
2022/05/20 07:25:07;;;;;;;7.15;4.40;;;17.10;99.90;;;;;;4932193;29;20066;-83
2022/05/20 07:27:32;;;;;;;6.90;4.57;;;17.20;99.90;;;;;;4928271;29;20047;-83
2022/05/20 07:29:58;;;;;;;8.23;5.00;;;17.30;99.90;;;;;;4937346;29;20511;-82
2022/05/20 07:32:24;;;;;;;8.25;5.63;;;17.20;99.90;;;;;;4947714;28;20063;-83
2022/05/20 07:34:50;;;;;;;6.22;4.93;;;17.20;99.90;;;;;;4916087;29;20190;-83
2022/05/20 07:37:15;;;;;;;6.93;5.05;;;17.20;99.90;;;;;;4933412;29;20543;-84
2022/05/20 07:39:41;;;;;;;8.80;5.38;;;17.30;99.90;;;;;;4917476;29;20489;-81
2022/05/20 07:42:07;;;;;;;7.25;5.47;;;17.30;99.90;;;;;;4949298;28;20410;-83
2022/05/20 07:44:35;;;;;;;10.52;5.90;;;17.30;99.90;;;;;;4931226;29;20055;-82
2022/05/20 07:47:01;;;;;;;8.35;5.60;;;17.30;99.90;;;;;;4897381;29;20060;-82
2022/05/20 07:49:27;;;;;;;9.20;5.95;;;17.20;99.90;;;;;;4934224;29;20489;-84
2022/05/20 07:51:55;;;;;;;6.38;5.38;;;17.30;99.90;;;;;;4914124;29;20596;-82
2022/05/20 07:54:23;;;;;;;9.48;5.50;;;17.30;99.90;;;;;;4932805;29;20044;-82
2022/05/20 07:57:07;;;;;;;7.07;5.70;;;17.30;99.90;;;;;;4930867;29;20051;-82
2022/05/20 07:59:48;;;;;;;6.40;5.63;;;17.40;99.90;;;;;;4917270;29;20079;-82
2022/05/20 08:02:16;;;;;;;6.22;5.60;;;17.40;99.90;;;;;;4948151;28;20047;-81
2022/05/20 08:05:01;;;;;;;6.95;5.97;;;17.40;99.90;;;;;;4946396;28;20051;-81
2022/05/20 08:07:31;;;;;;;7.90;5.63;;;17.50;99.90;;;;;;4927855;29;20052;-84
2022/05/20 08:09:59;;;;;;;6.57;5.22;;;17.80;99.90;;;;;;4932767;29;20043;-85
2022/05/20 08:12:27;;;;;;;7.22;5.75;;;17.90;99.90;;;;;;4932924;29;20051;-84
2022/05/20 08:14:57;;;;;;;8.98;5.40;;;18.00;99.90;;;;;;4902339;29;20051;-84
2022/05/20 08:17:27;;;;;;;7.15;5.70;;;18.00;99.90;;;;;;4933426;29;20059;-85
2022/05/20 08:19:53;;;;;;;8.23;5.63;;;18.00;99.90;;;;;;4948537;29;20044;-85
2022/05/20 08:22:23;;;;;;;7.47;6.13;;;18.10;99.90;;;;;;4940437;29;20051;-84
2022/05/20 08:24:53;;;;;;;9.57;6.20;;;18.20;99.90;;;;;;4932442;29;20043;-85
2022/05/20 08:27:26;;;;;;;8.93;6.07;;;18.30;99.90;;;;;;4921419;29;20048;-85
2022/05/20 08:29:52;;;;;;;7.78;6.15;;;18.40;99.90;;;;;;4908750;29;20043;-85
2022/05/20 08:32:18;;;;;;;9.20;5.93;;;18.40;99.90;;;;;;4950928;29;20048;-85
2022/05/20 08:34:46;;;;;;;8.23;6.70;;;18.60;99.90;;;;;;4933072;29;20059;-84
2022/05/20 08:37:13;;;;;;;8.52;5.45;;;18.70;99.90;;;;;;4932256;29;20508;-84
2022/05/20 08:39:39;;;;;;;8.27;6.07;;;18.80;99.90;;;;;;4947899;29;20103;-84
2022/05/20 08:42:14;;;;;;;7.25;5.60;;;18.90;99.90;;;;;;4894261;29;20059;-85
2022/05/20 08:45:13;;;;;;;10.73;6.10;;;18.90;99.90;;;;;;4931941;29;20075;-84
2022/05/20 08:55:49;;;;;;;7.80;5.55;;;19.40;99.90;;;;;;4879055;29;20056;-84
2022/05/20 08:58:49;;;;;;;6.85;6.07;;;19.50;99.90;;;;;;4889901;29;20096;-85
2022/05/20 09:01:51;;;;;;;6.53;5.32;;;19.40;99.90;;;;;;4939302;29;20067;-84
2022/05/20 09:05:02;;;;;;;7.15;5.28;;;19.40;99.90;;;;;;4927769;29;20099;-85
2022/05/20 09:08:00;;;;;;;8.30;5.72;;;19.50;99.90;;;;;;4937202;29;20524;-84
2022/05/20 09:10:38;;;;;;;9.05;5.45;;;19.50;99.90;;;;;;4944789;29;20070;-86
2022/05/20 09:16:35;;;;;;;6.70;5.97;;;19.30;99.90;;;;;;5002456;28;20081;-84
2022/05/20 09:19:11;;;;;;;7.82;6.45;;;19.20;99.90;;;;;;4962980;29;20394;-84
2022/05/20 09:21:42;;;;;;;6.70;6.00;;;19.20;99.90;;;;;;4959981;29;20159;-85
2022/05/20 09:24:20;;;;;;;7.03;5.90;;;19.20;99.90;;;;;;4959788;29;20044;-85
2022/05/20 09:27:08;;;;;;;8.82;6.28;;;19.20;99.90;;;;;;4940435;29;20154;-84
2022/05/20 09:29:56;;;;;;;7.57;5.78;;;19.10;99.90;;;;;;4959074;29;20051;-84
2022/05/20 09:32:43;;;;;;;7.43;6.15;;;19.10;99.90;;;;;;4961292;28;20055;-84
2022/05/20 09:42:35;;;;;;;6.88;5.50;;;18.90;99.90;;;;;;4955201;28;20083;-87
2022/05/20 09:45:20;;;;;;;8.75;5.90;;;19.10;99.90;;;;;;4954889;28;20067;-87
2022/05/20 09:47:57;;;;;;;6.75;5.55;;;18.90;99.90;;;;;;4936698;29;20052;-87
2022/05/20 09:50:30;;;;;;;8.60;6.80;;;19.00;99.90;;;;;;4947505;29;20047;-88
2022/05/20 09:53:03;;;;;;;7.22;5.75;;;19.00;99.90;;;;;;4942533;29;20625;-88
2022/05/20 09:55:36;;;;;;;9.43;6.53;;;18.60;99.90;;;;;;4918453;29;20051;-86
2022/05/20 09:58:21;;;;;;;;;;;18.90;99.90;;;;;;4933138;29;20134;-88
2022/05/20 10:01:22;;;;;;;7.15;5.85;;;18.90;99.90;;;;;;4933797;29;20606;-88
2022/05/20 10:03:56;;;;;;;11.18;6.40;;;18.90;99.90;;;;;;4934019;28;20067;-88
2022/05/20 10:06:35;;;;;;;9.95;7.18;;;18.70;99.90;;;;;;4947553;28;20051;-87
2022/05/20 10:09:22;;;;;;;7.28;6.50;;;19.20;99.90;;;;;;4933900;29;20043;-88
2022/05/20 10:11:57;;;;;;;8.00;6.50;;;18.70;99.90;;;;;;4912127;29;20062;-88
2022/05/20 10:14:44;;;;;;;9.75;6.70;;;18.80;99.90;;;;;;4948515;29;20051;-84
2022/05/20 10:17:37;;;;;;;8.88;6.78;;;18.70;99.90;;;;;;4913768;29;20056;-81
2022/05/20 10:20:31;;;;;;;10.80;7.90;;;18.80;99.90;;;;;;4930025;29;20070;-82
2022/05/20 10:23:27;;;;;;;8.35;7.55;;;18.70;99.90;;;;;;4945523;28;20441;-82
2022/05/20 10:26:11;;;;;;;9.45;8.13;;;18.60;99.90;;;;;;4930635;29;20118;-83
2022/05/20 10:34:35;;;;;;;8.98;8.07;;;18.40;99.90;;;;;;4945274;28;20393;-82
2022/05/20 10:37:07;;;;;;;8.00;7.20;;;18.40;99.90;;;;;;4911743;29;20118;-82
2022/05/20 10:39:51;;;;;;;9.82;7.43;;;18.40;99.90;;;;;;4926702;29;20103;-80
2022/05/20 10:42:41;;;;;;;11.27;7.43;;;18.40;99.90;;;;;;4924043;29;20150;-80
2022/05/20 10:51:02;;;;;;;7.63;6.70;;;18.40;99.90;;;;;;4921854;29;20152;-81
2022/05/20 10:53:56;;;;;;;8.68;6.85;;;18.30;99.90;;;;;;4939361;28;20610;-81
2022/05/20 10:56:39;;;;;;;8.63;7.60;;;18.40;99.90;;;;;;4920875;29;20050;-81
2022/05/20 10:59:13;;;;;;;8.30;7.45;;;18.40;99.90;;;;;;4903644;29;20055;-81
2022/05/20 11:01:54;;;;;;;8.20;7.40;;;18.40;99.90;;;;;;4938856;28;20040;-81
2022/05/20 11:04:20;;;;;;;8.18;7.18;;;18.40;99.90;;;;;;4907875;29;20059;-81
2022/05/20 11:07:17;;;;;;;8.68;7.05;;;18.40;99.90;;;;;;4920946;29;20051;-81
2022/05/20 11:10:01;;;;;;;8.57;7.50;;;18.40;99.90;;;;;;4940373;28;20051;-81
2022/05/20 11:13:15;;;;;;;9.45;7.60;;;18.50;99.90;;;;;;4922454;29;20051;-81
2022/05/20 11:16:07;;;;;;;8.52;6.55;;;18.60;99.90;;;;;;4923214;29;20060;-83
2022/05/20 11:19:07;;;;;;;7.50;6.80;;;18.70;99.90;;;;;;4895260;29;20127;-82
2022/05/20 11:21:47;;;;;;;8.68;6.82;;;18.80;99.90;;;;;;4922986;29;20685;-82
2022/05/20 11:24:25;;;;;;;8.73;7.97;;;18.90;99.90;;;;;;4921608;29;20051;-82
2022/05/20 11:26:59;;;;;;;10.20;7.57;;;19.00;99.90;;;;;;4935649;28;20457;-82
2022/05/20 11:29:56;;;;;;;10.02;7.82;;;19.10;99.90;;;;;;4924602;29;20257;-82
2022/05/20 11:32:25;;;;;;;;;;;19.10;99.90;;;;;;4939806;28;20235;-81
2022/05/20 11:35:11;;;;;;;8.48;7.57;;;19.20;99.90;;;;;;4923025;29;19931;-82
2022/05/20 11:37:58;;;;;;;9.60;7.28;;;19.30;99.90;;;;;;4919967;29;20393;-82
2022/05/20 11:40:30;;;;;;;9.75;7.72;;;19.40;99.90;;;;;;4945002;29;20056;-83
2022/05/20 11:43:18;;;;;;;8.32;7.20;;;19.50;99.90;;;;;;4930176;29;20451;-83
2022/05/20 11:46:12;;;;;;;6.82;6.07;;;19.50;99.90;;;;;;4945178;28;20110;-83
2022/05/20 11:48:58;;;;;;;7.35;5.72;;;19.60;99.90;;;;;;4945448;29;20442;-83
2022/05/20 11:51:33;;;;;;;7.57;5.90;;;19.60;99.90;;;;;;4928861;29;20051;-83
2022/05/20 11:54:24;;;;;;;7.47;5.22;;;19.60;99.90;;;;;;4927351;29;20465;-82
2022/05/20 11:57:14;;;;;;;6.70;4.95;;;19.70;99.90;;;;;;4928128;29;20537;-82
2022/05/20 12:03:25;;;;;;;8.77;6.15;;;19.60;99.90;;;;;;4931587;29;20051;-82
2022/05/20 12:05:52;;;;;;;7.28;5.50;;;19.50;99.90;;;;;;4932129;29;20047;-82
2022/05/20 12:08:57;;;;;;;8.65;6.63;;;19.50;99.90;;;;;;4931567;29;20048;-83
2022/05/20 12:11:37;;;;;;;7.40;6.57;;;19.40;99.90;;;;;;4950834;28;20385;-82
2022/05/20 12:14:19;;;;;;;7.93;5.68;;;19.40;99.90;;;;;;4912756;29;20095;-82
2022/05/20 12:17:05;;;;;;;8.43;5.78;;;19.20;99.90;;;;;;4920129;29;20055;-82
2022/05/20 12:25:39;;;;;;;7.05;4.88;;;19.10;99.90;;;;;;4916979;29;20771;-82
2022/05/20 12:28:36;;;;;;;8.20;4.47;;;19.10;99.90;;;;;;4930377;29;20140;-83
2022/05/20 12:31:17;;;;;;;6.80;5.22;;;19.10;99.90;;;;;;4916481;29;20059;-83
2022/05/20 12:33:51;;;;;;;6.82;4.93;;;19.10;99.90;;;;;;4933362;29;20127;-81
2022/05/20 12:36:28;;;;;;;7.32;5.07;;;19.10;99.90;;;;;;4915926;29;20047;-82
2022/05/20 12:39:06;;;;;;;6.20;4.68;;;19.10;99.90;;;;;;4934737;29;20150;-83
2022/05/20 12:41:44;;;;;;;5.82;3.85;;;19.20;99.90;;;;;;4927426;29;20054;-84
2022/05/20 12:44:18;;;;;;;5.65;3.70;;;19.20;99.90;;;;;;4928247;29;20051;-84
2022/05/20 12:47:19;;;;;;;5.85;3.65;;;19.20;99.90;;;;;;4944769;29;20421;-84
2022/05/20 12:49:48;;;;;;;4.93;4.00;;;19.20;99.90;;;;;;4926584;29;20095;-83
2022/05/20 12:52:24;;;;;;;5.80;3.60;;;19.20;99.90;;;;;;4924499;29;20402;-84
2022/05/20 12:54:52;;;;;;;6.35;3.53;;;19.10;99.90;;;;;;4948072;29;20520;-84
2022/05/20 12:57:25;;;;;;;5.72;3.60;;;19.00;99.90;;;;;;4947594;29;20925;-83
2022/05/20 13:00:08;;;;;;;8.05;3.80;;;18.90;99.90;;;;;;4947090;29;20055;-86
2022/05/20 13:02:39;;;;;;;5.38;3.30;;;18.80;99.90;;;;;;4925255;29;20043;-81
2022/05/20 13:05:30;;;;;;;5.28;3.55;;;18.70;99.90;;;;;;4947218;28;20050;-80
2022/05/20 13:07:57;;;;;;;5.85;3.30;;;18.60;99.90;;;;;;4930103;29;20083;-80
2022/05/20 13:10:26;;;;;;;4.95;3.17;;;18.50;99.90;;;;;;4930421;29;20043;-80
2022/05/20 13:12:54;;;;;;;5.15;3.53;;;18.30;99.90;;;;;;4945795;28;20122;-80
2022/05/20 13:15:20;;;;;;;4.53;3.70;;;18.30;99.90;;;;;;4929631;29;20054;-80
2022/05/20 13:18:06;;;;;;;4.95;3.70;;;18.20;99.90;;;;;;4925758;28;20052;-81
2022/05/20 13:20:35;;;;;;;5.93;4.20;;;18.10;99.90;;;;;;4925720;29;20048;-79
2022/05/20 13:23:05;;;;;;;6.03;3.80;;;17.90;99.90;;;;;;4910771;29;20058;-80
2022/05/20 13:25:31;;;;;;;8.25;4.25;;;17.70;99.90;;;;;;4926345;29;20039;-79
2022/05/20 13:27:59;;;;;;;9.48;4.20;;;17.50;99.90;;;;;;4911222;29;20401;-79
2022/05/20 13:30:31;;;;;;;7.28;4.22;;;17.40;99.90;;;;;;4929427;29;20053;-79
2022/05/20 13:33:04;;;;;;;8.68;5.25;;;17.30;99.90;;;;;;4929492;29;20051;-79
2022/05/20 13:35:31;;;;;;;6.13;4.53;;;17.20;99.90;;;;;;4927164;29;20052;-79
2022/05/20 13:37:59;;;;;;;5.93;5.05;;;17.10;99.90;;;;;;4929434;29;20048;-78
2022/05/20 13:40:28;;;;;;;10.00;5.57;;;17.10;99.90;;;;;;4929648;29;20556;-79
2022/05/20 13:42:55;;;;;;;9.65;6.13;;;16.90;99.90;;;;;;4945819;28;20708;-78
2022/05/20 13:51:09;;;;;;;6.03;4.90;;;16.70;99.90;;;;;;4924113;29;20572;-82
2022/05/20 13:53:38;;;;;;;8.18;4.90;;;16.70;99.90;;;;;;4928608;29;20115;-81
2022/05/20 13:56:06;;;;;;;5.68;4.70;;;16.50;99.90;;;;;;4912072;29;20124;-79
2022/05/20 13:58:33;;;;;;;6.03;3.55;;;16.30;99.90;;;;;;4944613;28;20523;-79
2022/05/20 14:01:02;;;;;;;4.95;3.70;;;16.20;99.90;;;;;;4921949;29;20550;-78
2022/05/20 14:03:31;;;;;;;6.53;3.65;;;16.00;99.90;;;;;;4927392;29;20119;-79
2022/05/20 14:06:03;;;;;;;8.15;4.57;;;15.90;99.90;;;;;;4943658;28;20059;-80
2022/05/20 14:08:31;;;;;;;5.22;4.10;;;15.90;99.90;;;;;;4921266;29;20055;-79
2022/05/20 14:11:03;;;;;;;6.05;4.57;;;16.00;99.90;;;;;;4921183;29;20058;-79
2022/05/20 14:13:37;;;;;;;4.78;3.40;;;16.00;99.90;;;;;;4925981;29;20485;-80
2022/05/20 14:16:10;;;;;;;6.07;3.03;;;16.10;99.90;;;;;;4925470;29;20122;-79